createdAt,value
2023-01-19T00:00:06.924Z,2.46
2023-01-19T00:02:34.025Z,2.36
2023-01-19T00:05:01.983Z,2.21
2023-01-19T00:07:30.512Z,2.48
2023-01-19T00:09:57.751Z,2.46
2023-01-19T00:12:24.685Z,2.50
2023-01-19T00:14:51.583Z,2.10
2023-01-19T00:17:18.512Z,2.50
2023-01-19T00:19:45.697Z,2.39
2023-01-19T00:22:12.618Z,2.49
2023-01-19T00:24:39.497Z,2.26
2023-01-19T00:27:06.416Z,2.19
2023-01-19T00:29:34.351Z,1.97
2023-01-19T00:32:05.288Z,2.52
2023-01-19T00:34:37.015Z,2.23
2023-01-19T00:37:04.625Z,2.42
2023-01-19T00:39:31.894Z,2.56
2023-01-19T00:42:17.333Z,2.45
2023-01-19T00:44:44.230Z,2.22
2023-01-19T00:47:11.123Z,2.61
2023-01-19T00:49:38.056Z,2.64
2023-01-19T00:52:05.207Z,2.40
2023-01-19T00:54:32.134Z,2.49
2023-01-19T00:56:59.109Z,2.64
2023-01-19T00:59:26.035Z,2.39
2023-01-19T01:01:53.251Z,2.41
2023-01-19T01:04:20.248Z,2.58
2023-01-19T01:06:47.269Z,2.74
2023-01-19T01:09:14.203Z,2.73
2023-01-19T01:11:42.193Z,2.66
2023-01-19T01:14:10.583Z,2.59
2023-01-19T01:16:37.494Z,2.59
2023-01-19T01:19:04.447Z,2.65
2023-01-19T01:21:34.024Z,2.67
2023-01-19T01:24:00.994Z,2.90
2023-01-19T01:26:27.900Z,2.60
2023-01-19T01:28:54.796Z,2.70
2023-01-19T01:31:21.732Z,2.90
2023-01-19T01:33:48.634Z,3.04
2023-01-19T01:36:16.092Z,2.67
2023-01-19T01:38:42.992Z,2.87
2023-01-19T01:41:09.940Z,2.99
2023-01-19T01:43:48.884Z,2.89
2023-01-19T01:46:17.461Z,2.82
2023-01-19T01:49:06.300Z,3.07
2023-01-19T01:51:42.078Z,3.00
2023-01-19T01:54:19.457Z,2.79
2023-01-19T01:56:51.731Z,3.05
2023-01-19T01:59:26.833Z,3.16
2023-01-19T02:04:24.294Z,3.18
2023-01-19T02:07:09.780Z,2.89
2023-01-19T02:09:55.842Z,2.99
2023-01-19T02:12:41.779Z,3.07
2023-01-19T02:15:17.089Z,3.10
2023-01-19T02:17:44.122Z,2.99
2023-01-19T02:20:11.199Z,2.94
2023-01-19T02:22:49.541Z,3.01
2023-01-19T02:25:17.097Z,2.92
2023-01-19T02:27:44.106Z,2.84
2023-01-19T02:30:11.569Z,3.00
2023-01-19T02:32:38.514Z,3.03
2023-01-19T02:35:06.071Z,2.91
2023-01-19T02:37:34.333Z,3.11
2023-01-19T02:40:02.072Z,3.05
2023-01-19T02:42:37.351Z,3.16
2023-01-19T02:45:06.891Z,3.09
2023-01-19T02:48:00.532Z,3.37
2023-01-19T02:50:37.384Z,3.43
2023-01-19T02:53:16.274Z,3.49
2023-01-19T02:55:43.385Z,3.23
2023-01-19T02:58:16.001Z,3.17
2023-01-19T03:01:09.845Z,3.65
2023-01-19T03:03:50.253Z,3.47
2023-01-19T03:06:22.262Z,3.68
2023-01-19T03:08:58.899Z,3.43
2023-01-19T03:11:28.287Z,3.57
2023-01-19T03:14:10.546Z,3.34
2023-01-19T03:16:55.897Z,3.61
2023-01-19T03:19:27.993Z,3.85
2023-01-19T03:21:57.516Z,3.90
2023-01-19T03:24:24.892Z,3.83
2023-01-19T03:26:57.773Z,3.75
2023-01-19T03:29:27.352Z,3.89
2023-01-19T03:31:54.551Z,3.87
2023-01-19T03:34:23.958Z,3.81
2023-01-19T03:36:52.749Z,3.56
2023-01-19T03:39:24.381Z,4.13
2023-01-19T03:41:56.967Z,4.13
2023-01-19T03:44:24.740Z,3.94
2023-01-19T03:46:52.280Z,3.99
2023-01-19T03:49:22.387Z,4.06
2023-01-19T03:51:49.580Z,4.21
2023-01-19T03:54:16.619Z,4.05
2023-01-19T03:56:45.003Z,4.01
2023-01-19T03:59:11.980Z,3.93
2023-01-19T04:01:39.093Z,3.95
2023-01-19T04:04:06.014Z,4.28
2023-01-19T04:06:32.918Z,4.16
2023-01-19T04:08:59.833Z,3.95
2023-01-19T04:11:26.759Z,4.06
2023-01-19T04:13:53.713Z,4.09
2023-01-19T04:16:21.413Z,4.29
2023-01-19T04:18:48.914Z,4.19
2023-01-19T04:21:16.494Z,4.30
2023-01-19T04:23:47.896Z,3.77
2023-01-19T04:26:18.693Z,4.24
2023-01-19T04:28:46.148Z,4.09
2023-01-19T04:31:14.856Z,4.22
2023-01-19T04:33:41.846Z,3.97
2023-01-19T04:36:08.954Z,3.92
2023-01-19T04:38:36.153Z,3.92
2023-01-19T04:41:03.187Z,4.23
2023-01-19T04:43:30.252Z,4.23
2023-01-19T06:04:27.479Z,4.38
2023-01-19T06:06:54.788Z,4.24
2023-01-19T06:09:21.767Z,4.46
2023-01-19T06:11:54.285Z,4.21
2023-01-19T06:14:21.339Z,4.34
2023-01-19T06:16:50.985Z,4.46
2023-01-19T06:19:18.098Z,4.17
2023-01-19T06:21:49.808Z,4.47
2023-01-19T06:24:16.806Z,4.44
2023-01-19T06:26:44.031Z,4.33
2023-01-19T06:29:12.248Z,4.30
2023-01-19T06:31:39.278Z,4.34
2023-01-19T06:34:06.320Z,4.22
2023-01-19T06:36:33.218Z,4.22
2023-01-19T06:39:03.321Z,4.34
2023-01-19T06:41:30.302Z,4.47
2023-01-19T06:43:57.189Z,4.07
2023-01-19T06:46:24.099Z,4.28
2023-01-19T06:48:51.050Z,4.35
2023-01-19T06:51:17.942Z,4.28
2023-01-19T06:53:47.919Z,4.46
2023-01-19T06:56:14.980Z,4.00
2023-01-19T06:58:42.737Z,4.45
2023-01-19T07:01:09.789Z,4.45
2023-01-19T07:03:38.172Z,4.23
2023-01-19T07:06:06.770Z,4.45
2023-01-19T07:08:34.770Z,4.35
2023-01-19T07:11:25.713Z,4.23
2023-01-19T07:13:54.127Z,4.05
2023-01-19T07:16:21.080Z,4.30
2023-01-19T07:18:51.572Z,4.16
2023-01-19T07:21:21.368Z,4.16
2023-01-19T07:23:49.508Z,4.35
2023-01-19T07:26:18.871Z,4.22
2023-01-19T07:28:47.347Z,4.10
2023-01-19T07:31:15.646Z,3.88
2023-01-19T07:33:42.786Z,4.33
2023-01-19T07:38:37.132Z,4.38
2023-01-19T07:41:05.343Z,3.86
2023-01-19T07:43:32.553Z,4.14
2023-01-19T07:46:00.565Z,4.35
2023-01-19T07:48:27.708Z,4.24
2023-01-19T07:50:59.882Z,4.32
2023-01-19T07:53:26.842Z,4.11
2023-01-19T07:55:56.938Z,4.08
2023-01-19T07:58:24.848Z,3.76
2023-01-19T08:00:51.821Z,4.26
2023-01-19T08:03:19.166Z,4.14
2023-01-19T08:05:49.235Z,4.19
2023-01-19T08:08:16.159Z,4.18
2023-01-19T08:10:43.054Z,4.08
2023-01-19T08:13:09.949Z,4.15
2023-01-19T08:15:37.658Z,3.94
2023-01-19T08:18:09.797Z,4.15
2023-01-19T08:20:36.790Z,3.97
2023-01-19T08:23:05.064Z,4.39
2023-01-19T08:25:36.809Z,4.28
2023-01-19T08:28:04.969Z,3.87
2023-01-19T08:30:32.097Z,4.19
2023-01-19T08:33:06.622Z,4.22
2023-01-19T08:35:38.368Z,3.93
2023-01-19T08:38:06.059Z,4.02
2023-01-19T08:40:35.432Z,4.42
2023-01-19T08:43:07.948Z,4.34
2023-01-19T08:45:35.837Z,4.32
2023-01-19T08:48:03.045Z,4.44
2023-01-19T08:50:30.843Z,4.20
2023-01-19T08:53:02.838Z,4.18
2023-01-19T08:55:30.423Z,4.00
2023-01-19T08:57:58.203Z,4.33
2023-01-19T09:00:27.064Z,4.46
2023-01-19T09:02:54.889Z,4.24
2023-01-19T09:05:22.384Z,4.18
2023-01-19T09:07:49.521Z,4.22
2023-01-19T09:10:16.783Z,4.47
2023-01-19T09:12:45.069Z,4.21
2023-01-19T09:15:14.016Z,4.24
2023-01-19T09:17:42.376Z,4.46
2023-01-19T09:20:09.861Z,4.15
2023-01-19T09:22:36.787Z,3.93
2023-01-19T09:25:04.014Z,4.46
2023-01-19T09:27:30.906Z,4.46
2023-01-19T09:29:57.815Z,4.19
2023-01-19T09:32:24.933Z,4.07
2023-01-19T09:34:52.561Z,4.30
2023-01-19T09:37:19.593Z,4.59
2023-01-19T09:39:46.520Z,4.83
2023-01-19T09:42:29.945Z,4.57
2023-01-19T09:44:57.074Z,4.83
2023-01-19T09:47:27.370Z,5.09
2023-01-19T09:50:01.599Z,5.27
2023-01-19T09:52:28.866Z,5.36
2023-01-19T09:54:59.227Z,5.51
2023-01-19T09:57:27.518Z,5.71
2023-01-19T09:59:59.882Z,5.80
2023-01-19T10:02:37.500Z,5.74
2023-01-19T10:05:45.486Z,5.94
2023-01-19T10:08:36.478Z,5.94
2023-01-19T10:11:03.777Z,5.86
2023-01-19T10:13:44.613Z,5.95
2023-01-19T10:16:26.544Z,5.97
2023-01-19T10:18:59.468Z,5.92
2023-01-19T10:21:41.402Z,5.97
2023-01-19T10:24:19.325Z,6.15
2023-01-19T10:26:56.327Z,5.92
2023-01-19T10:29:36.532Z,6.13
2023-01-19T10:32:26.161Z,6.12
2023-01-19T10:34:54.957Z,6.00
2023-01-19T10:37:34.685Z,6.47
2023-01-19T10:40:22.736Z,6.54
2023-01-19T10:42:49.993Z,6.45
2023-01-19T10:45:18.914Z,6.34
2023-01-19T10:47:49.921Z,6.51
2023-01-19T10:50:29.880Z,6.65
2023-01-19T10:53:00.445Z,6.51
2023-01-19T10:55:34.379Z,6.42
2023-01-19T10:58:02.145Z,6.45
2023-01-19T11:00:41.268Z,6.73
2023-01-19T11:03:25.994Z,6.53
2023-01-19T11:05:53.191Z,6.43
2023-01-19T11:08:40.729Z,6.72
2023-01-19T11:11:09.138Z,6.56
2023-01-19T11:13:36.424Z,6.68
2023-01-19T11:16:17.904Z,6.67
2023-01-19T11:18:52.559Z,6.48
2023-01-19T11:21:28.386Z,6.24
2023-01-19T11:23:59.226Z,6.43
2023-01-19T11:26:41.544Z,6.63
2023-01-19T11:29:23.350Z,6.64
2023-01-19T11:31:51.811Z,6.68
2023-01-19T11:34:38.739Z,6.38
2023-01-19T11:37:18.540Z,6.77
2023-01-19T11:39:57.960Z,6.45
2023-01-19T11:42:26.818Z,6.27
2023-01-19T11:45:26.729Z,6.46
2023-01-19T11:47:53.847Z,6.22
2023-01-19T11:50:33.637Z,6.22
2023-01-19T11:53:30.886Z,6.23
2023-01-19T11:56:08.754Z,6.20
2023-01-19T11:58:46.882Z,4.45
2023-01-19T12:01:21.107Z,6.30
2023-01-19T12:03:55.953Z,6.51
2023-01-19T12:06:31.653Z,6.32
2023-01-19T12:09:10.561Z,6.48
2023-01-19T12:11:41.928Z,6.34
2023-01-19T12:14:27.098Z,6.40
2023-01-19T12:16:57.984Z,6.27
2023-01-19T12:19:54.885Z,5.91
2023-01-19T12:22:23.868Z,6.27
2023-01-19T12:25:01.233Z,5.80
2023-01-19T12:27:57.138Z,5.96
2023-01-19T12:30:27.093Z,5.73
2023-01-19T12:33:34.990Z,6.09
2023-01-19T12:36:19.099Z,6.05
2023-01-19T12:39:12.758Z,6.01
2023-01-19T12:41:40.971Z,5.80
2023-01-19T12:44:11.140Z,5.99
2023-01-19T12:46:42.520Z,5.98
2023-01-19T12:49:27.563Z,5.96
2023-01-19T12:52:26.886Z,6.00
2023-01-19T12:55:13.189Z,5.53
2023-01-19T12:58:03.733Z,5.94
2023-01-19T13:00:36.218Z,5.81
2023-01-19T13:03:25.451Z,5.92
2023-01-19T13:05:56.920Z,5.65
2023-01-19T13:08:31.207Z,6.03
2023-01-19T13:11:05.147Z,6.18
2023-01-19T13:13:49.405Z,5.58
2023-01-19T13:16:19.580Z,6.21
2023-01-19T13:18:58.348Z,6.20
2023-01-19T13:21:49.575Z,6.00
2023-01-19T13:24:22.546Z,5.97
2023-01-19T13:26:49.504Z,6.10
2023-01-19T13:29:25.151Z,6.06
2023-01-19T13:31:54.059Z,6.04
2023-01-19T13:34:25.006Z,5.94
2023-01-19T13:36:54.907Z,5.94
2023-01-19T13:39:40.430Z,6.06
2023-01-19T13:42:15.250Z,6.06
2023-01-19T13:44:51.418Z,6.06
2023-01-19T13:47:43.784Z,5.89
2023-01-19T13:50:21.648Z,5.87
2023-01-19T13:52:51.368Z,6.08
2023-01-19T13:55:20.998Z,5.78
2023-01-19T13:57:49.767Z,6.01
2023-01-19T14:00:31.076Z,5.95
2023-01-19T14:03:00.185Z,5.75
2023-01-19T14:05:39.765Z,5.94
2023-01-19T14:08:12.502Z,6.06
2023-01-19T14:10:42.135Z,6.01
2023-01-19T14:13:26.452Z,6.02
2023-01-19T14:15:57.555Z,5.93
2023-01-19T14:18:31.050Z,5.79
2023-01-19T14:21:09.912Z,5.94
2023-01-19T14:23:51.646Z,5.78
2023-01-19T14:26:51.441Z,5.74
2023-01-19T14:29:32.913Z,5.80
2023-01-19T14:32:20.278Z,5.54
2023-01-19T14:35:12.996Z,5.79
2023-01-19T14:37:48.023Z,5.59
2023-01-19T14:40:20.847Z,5.80
2023-01-19T14:43:07.849Z,5.78
2023-01-19T14:45:38.494Z,5.68
2023-01-19T14:48:20.521Z,5.65
2023-01-19T14:51:02.363Z,5.65
2023-01-19T14:53:37.330Z,5.42
2023-01-19T14:56:06.524Z,5.73
2023-01-19T14:58:35.719Z,5.44
2023-01-19T15:01:03.416Z,5.68
2023-01-19T15:03:44.177Z,5.45
2023-01-19T15:06:19.288Z,5.60
2023-01-19T15:08:46.545Z,5.26
2023-01-19T15:11:30.500Z,5.14
2023-01-19T15:13:59.130Z,5.20
2023-01-19T15:16:28.761Z,5.26
2023-01-19T15:18:56.410Z,5.44
2023-01-19T15:21:26.467Z,5.39
2023-01-19T15:23:58.452Z,5.03
2023-01-19T15:26:26.890Z,5.00
2023-01-19T15:28:55.039Z,5.34
2023-01-19T15:31:24.921Z,5.10
2023-01-19T15:33:52.086Z,5.16
2023-01-19T15:36:21.378Z,4.83
2023-01-19T15:38:51.876Z,5.05
2023-01-19T15:41:32.147Z,5.05
2023-01-19T15:43:59.230Z,4.86
2023-01-19T15:46:27.224Z,4.51
2023-01-19T15:48:54.635Z,4.97
2023-01-19T15:51:25.964Z,5.15
2023-01-19T15:53:54.040Z,5.11
2023-01-19T15:56:25.060Z,4.90
2023-01-19T15:58:52.996Z,4.72
2023-01-19T16:01:23.819Z,4.90
2023-01-19T16:03:51.312Z,4.78
2023-01-19T16:06:19.029Z,4.94
2023-01-19T16:08:46.084Z,4.78
2023-01-19T16:11:15.326Z,4.87
2023-01-19T16:13:46.341Z,4.77
2023-01-19T16:16:20.323Z,4.62
2023-01-19T16:18:47.778Z,4.51
2023-01-19T16:21:15.249Z,4.69
2023-01-19T16:23:42.593Z,4.44
2023-01-19T16:26:25.941Z,4.78
2023-01-19T16:28:57.457Z,4.62
2023-01-19T16:31:27.848Z,4.47
2023-01-19T16:33:55.123Z,4.23
2023-01-19T16:36:28.802Z,4.59
2023-01-19T16:39:03.240Z,4.67
2023-01-19T16:41:30.373Z,4.53
2023-01-19T16:43:58.510Z,4.43
2023-01-19T16:46:29.968Z,4.39
2023-01-19T16:49:26.827Z,4.61
2023-01-19T16:51:58.112Z,4.24
2023-01-19T16:54:26.615Z,4.44
2023-01-19T16:56:55.966Z,4.25
2023-01-19T16:59:24.656Z,4.42
2023-01-19T17:01:52.180Z,3.98
2023-01-19T17:04:20.928Z,4.28
2023-01-19T17:06:48.131Z,4.35
2023-01-19T17:09:15.652Z,4.30
2023-01-19T17:11:43.904Z,3.83
2023-01-19T17:14:21.785Z,4.24
2023-01-19T17:16:49.530Z,4.14
2023-01-19T17:19:19.456Z,4.33
2023-01-19T17:21:48.940Z,3.90
2023-01-19T17:24:16.567Z,3.87
2023-01-19T17:26:45.987Z,4.33
2023-01-19T17:29:13.018Z,4.19
2023-01-19T17:31:40.144Z,4.19
2023-01-19T17:34:08.790Z,4.09
2023-01-19T17:36:35.879Z,4.27
2023-01-19T17:39:08.421Z,4.26
2023-01-19T17:41:36.261Z,3.60
2023-01-19T17:44:04.979Z,4.12
2023-01-19T17:46:35.271Z,4.26
2023-01-19T17:49:05.007Z,3.90
2023-01-19T17:51:32.880Z,3.98
2023-01-19T17:54:00.139Z,4.22
2023-01-19T17:56:30.489Z,3.74
2023-01-19T17:58:58.883Z,4.19
2023-01-19T18:01:38.332Z,4.00
2023-01-19T18:04:05.576Z,3.89
2023-01-19T18:06:32.745Z,3.95
2023-01-19T18:09:14.980Z,3.94
2023-01-19T18:11:43.053Z,3.71
2023-01-19T18:14:09.938Z,3.90
2023-01-19T18:16:36.842Z,3.43
2023-01-19T18:19:03.823Z,3.76
2023-01-19T18:21:30.868Z,3.54
2023-01-19T18:24:03.881Z,3.90
2023-01-19T18:26:31.964Z,3.69
2023-01-19T18:28:58.865Z,3.50
2023-01-19T18:31:26.657Z,3.63
2023-01-19T18:33:53.593Z,3.46
2023-01-19T18:36:20.569Z,3.88
2023-01-19T18:38:47.912Z,3.85
2023-01-19T18:41:19.179Z,3.84
2023-01-19T18:43:46.760Z,3.61
2023-01-19T18:46:14.775Z,3.80
2023-01-19T18:48:41.742Z,3.75
2023-01-19T18:51:10.689Z,3.33
2023-01-19T18:53:38.185Z,3.68
2023-01-19T18:56:06.206Z,3.57
2023-01-19T18:58:36.178Z,3.55
2023-01-19T19:01:03.240Z,3.30
2023-01-19T19:03:30.227Z,3.37
2023-01-19T19:05:57.151Z,3.69
2023-01-19T19:08:24.326Z,3.45
2023-01-19T19:10:51.574Z,3.44
2023-01-19T19:13:21.864Z,3.51
2023-01-19T19:15:49.141Z,3.54
2023-01-19T19:18:16.406Z,3.40
2023-01-19T19:20:43.866Z,3.39
2023-01-19T19:23:11.641Z,3.46
2023-01-19T19:25:38.665Z,3.59
2023-01-19T19:28:05.712Z,3.27
2023-01-19T19:30:34.771Z,3.09
2023-01-19T19:33:01.880Z,3.33
2023-01-19T19:35:28.895Z,2.94
2023-01-19T19:37:57.751Z,3.13
2023-01-19T19:40:26.118Z,3.16
2023-01-19T19:42:53.269Z,3.03
2023-01-19T19:45:20.669Z,2.93
2023-01-19T19:47:47.733Z,2.15
2023-01-19T19:50:17.845Z,2.62
2023-01-19T19:52:45.242Z,2.36
2023-01-19T19:55:12.845Z,2.58
2023-01-19T19:57:40.674Z,1.95
2023-01-19T20:00:08.646Z,2.52
2023-01-19T20:02:35.690Z,2.50
2023-01-19T20:05:02.815Z,2.42
2023-01-19T20:07:29.885Z,2.27
2023-01-19T20:09:56.942Z,2.46
2023-01-19T20:12:24.007Z,2.44
2023-01-19T20:14:50.982Z,2.42
2023-01-19T20:17:19.099Z,2.25
2023-01-19T20:19:47.787Z,2.52
2023-01-19T20:22:15.685Z,2.54
2023-01-19T20:24:42.696Z,2.45
2023-01-19T20:27:09.705Z,2.43
2023-01-19T20:29:36.848Z,2.25
2023-01-19T20:32:04.176Z,2.45
2023-01-19T20:34:33.725Z,2.35
2023-01-19T20:37:02.091Z,2.60
2023-01-19T20:39:34.668Z,2.60
2023-01-19T20:42:02.488Z,2.58
2023-01-19T20:44:30.400Z,2.27
2023-01-19T20:46:57.454Z,2.49
2023-01-19T20:49:24.796Z,2.62
2023-01-19T20:51:52.332Z,2.30
2023-01-19T20:54:23.083Z,2.54
2023-01-19T20:56:50.266Z,2.38
2023-01-19T20:59:17.945Z,2.41
2023-01-19T21:01:45.659Z,2.41
2023-01-19T21:04:13.419Z,2.52
2023-01-19T21:06:41.233Z,2.40
2023-01-19T21:09:09.658Z,2.51
2023-01-19T21:11:38.464Z,2.26
2023-01-19T21:14:06.200Z,2.51
2023-01-19T21:16:35.248Z,2.38
2023-01-19T21:19:02.631Z,2.31
2023-01-19T21:21:31.692Z,2.46
2023-01-19T21:24:01.206Z,2.46
2023-01-19T21:26:33.653Z,2.44
2023-01-19T21:29:02.206Z,2.21
2023-01-19T21:31:29.550Z,2.34
2023-01-19T21:33:59.903Z,2.15
2023-01-19T21:36:27.299Z,2.32
2023-01-19T21:39:00.139Z,2.29
2023-01-19T21:41:28.389Z,2.33
2023-01-19T21:43:55.964Z,2.25
2023-01-19T21:46:29.717Z,2.30
2023-01-19T21:49:01.717Z,2.31
2023-01-19T21:51:29.716Z,2.20
2023-01-19T21:53:59.611Z,2.26
2023-01-19T21:56:30.624Z,2.07
2023-01-19T21:58:58.621Z,1.92
2023-01-19T22:01:29.018Z,2.07
2023-01-19T22:03:57.855Z,2.20
2023-01-19T22:06:26.684Z,1.91
2023-01-19T22:08:54.834Z,1.97
2023-01-19T22:11:22.421Z,2.06
2023-01-19T22:13:50.362Z,2.13
2023-01-19T22:16:20.269Z,1.74
2023-01-19T22:18:57.610Z,2.10
2023-01-19T22:21:34.075Z,1.79
2023-01-19T22:24:03.334Z,1.92
2023-01-19T22:26:31.916Z,2.02
2023-01-19T22:29:01.653Z,1.79
2023-01-19T22:31:30.779Z,1.77
2023-01-19T22:33:58.777Z,1.88
2023-01-19T22:36:27.965Z,1.93
2023-01-19T22:38:58.063Z,1.36
2023-01-19T22:41:34.642Z,1.64
2023-01-19T22:44:05.475Z,1.52
2023-01-19T22:46:35.376Z,1.69
2023-01-19T22:49:02.692Z,1.77
2023-01-19T22:51:32.159Z,1.53
2023-01-19T22:53:59.797Z,1.33
2023-01-19T22:56:32.396Z,1.52
2023-01-19T22:59:00.267Z,1.43
2023-01-19T23:01:31.530Z,1.63
2023-01-19T23:03:58.787Z,1.71
2023-01-19T23:06:29.701Z,1.65
2023-01-19T23:08:59.783Z,1.58
2023-01-19T23:11:36.226Z,1.34
2023-01-19T23:14:04.826Z,1.48
2023-01-19T23:16:31.817Z,1.51
2023-01-19T23:18:59.023Z,1.63
2023-01-19T23:21:29.018Z,1.23
2023-01-19T23:23:58.527Z,1.54
2023-01-19T23:26:28.911Z,1.30
2023-01-19T23:28:58.583Z,1.64
2023-01-19T23:31:31.666Z,1.46
2023-01-19T23:34:06.228Z,1.32
2023-01-19T23:36:35.988Z,1.55
2023-01-19T23:39:12.773Z,1.56
2023-01-19T23:41:39.846Z,1.50
2023-01-19T23:44:07.124Z,1.31
2023-01-19T23:46:34.125Z,1.19
2023-01-19T23:49:01.172Z,1.22
2023-01-19T23:51:30.832Z,1.51
2023-01-19T23:53:58.912Z,1.38
2023-01-19T23:56:35.239Z,1.60
2023-01-19T23:59:08.023Z,1.58
